createdAt,value
2022-11-22T00:02:13.442Z,96290.72
2022-11-22T00:04:41.947Z,96292.44
2022-11-22T00:07:10.380Z,96291.56
2022-11-22T00:09:38.739Z,96282.22
2022-11-22T00:12:07.146Z,96280.50
2022-11-22T00:14:36.973Z,96284.72
2022-11-22T00:17:05.279Z,96276.13
2022-11-22T00:19:33.542Z,96267.72
2022-11-22T00:22:01.866Z,96263.47
2022-11-22T00:24:30.113Z,96254.09
2022-11-22T00:26:58.347Z,96253.25
2022-11-22T00:29:27.089Z,96241.38
2022-11-22T00:31:56.935Z,96233.72
2022-11-22T00:34:25.400Z,96237.16
2022-11-22T00:36:53.669Z,96240.56
2022-11-22T00:39:22.135Z,96243.09
2022-11-22T00:41:50.461Z,96245.69
2022-11-22T00:44:19.090Z,96245.66
2022-11-22T00:46:47.411Z,96239.72
2022-11-22T00:49:17.329Z,96237.19
2022-11-22T00:51:45.660Z,96240.56
2022-11-22T00:54:13.968Z,96238.88
2022-11-22T00:56:42.259Z,96255.03
2022-11-22T00:59:10.561Z,96254.16
2022-11-22T01:01:39.064Z,96243.19
2022-11-22T01:04:07.387Z,96252.47
2022-11-22T01:06:37.129Z,96245.69
2022-11-22T01:09:05.444Z,96255.16
2022-11-22T01:11:33.833Z,96250.84
2022-11-22T01:14:02.100Z,96249.06
2022-11-22T01:16:30.383Z,96248.22
2022-11-22T01:18:58.636Z,96243.94
2022-11-22T01:21:26.959Z,96232.06
2022-11-22T01:23:56.653Z,96243.94
2022-11-22T01:26:25.010Z,96237.09
2022-11-22T01:28:53.286Z,96241.31
2022-11-22T01:31:21.592Z,96251.50
2022-11-22T01:33:49.967Z,96242.22
2022-11-22T01:36:18.465Z,96250.69
2022-11-22T01:38:46.712Z,96250.72
2022-11-22T01:41:16.521Z,96255.00
2022-11-22T01:43:44.771Z,96255.81
2022-11-22T01:46:19.657Z,96254.06
2022-11-22T01:48:51.334Z,96259.19
2022-11-22T01:51:26.775Z,96254.84
2022-11-22T01:53:57.827Z,96248.91
2022-11-22T01:56:29.972Z,96254.81
2022-11-22T01:59:00.563Z,96249.69
2022-11-22T02:01:30.021Z,96247.97
2022-11-22T02:03:59.382Z,96244.56
2022-11-22T02:06:32.979Z,96238.56
2022-11-22T02:09:05.441Z,96246.94
2022-11-22T02:11:38.160Z,96250.34
2022-11-22T02:14:07.011Z,96246.94
2022-11-22T02:16:37.640Z,96248.69
2022-11-22T02:19:07.198Z,96241.13
2022-11-22T02:21:35.519Z,96242.78
2022-11-22T02:24:08.863Z,96242.00
2022-11-22T02:26:38.690Z,96233.47
2022-11-22T02:29:09.065Z,96229.16
2022-11-22T02:31:40.660Z,96230.03
2022-11-22T02:34:09.195Z,96232.63
2022-11-22T02:36:41.105Z,96217.34
2022-11-22T02:39:11.487Z,96209.75
2022-11-22T02:41:41.637Z,96205.50
2022-11-22T02:44:11.068Z,96197.00
2022-11-22T02:46:48.452Z,96198.72
2022-11-22T02:49:18.862Z,96182.59
2022-11-22T02:51:47.768Z,96185.13
2022-11-22T02:54:16.392Z,96176.63
2022-11-22T02:56:46.309Z,96183.47
2022-11-22T02:59:14.677Z,96175.81
2022-11-22T03:01:43.684Z,96172.41
2022-11-22T03:04:25.100Z,96164.78
2022-11-22T03:06:55.448Z,96173.28
2022-11-22T03:09:23.877Z,96173.22
2022-11-22T03:11:54.073Z,96181.03
2022-11-22T03:14:22.502Z,96174.19
2022-11-22T03:16:51.004Z,96173.31
2022-11-22T03:19:19.409Z,96170.78
2022-11-22T03:21:47.980Z,96163.06
2022-11-22T03:24:16.398Z,96170.72
2022-11-22T03:26:48.081Z,96168.19
2022-11-22T03:29:18.176Z,96158.84
2022-11-22T03:31:47.043Z,96155.47
2022-11-22T03:34:15.576Z,96155.50
2022-11-22T03:36:44.312Z,96151.22
2022-11-22T03:39:12.658Z,96152.09
2022-11-22T03:41:41.005Z,96142.72
2022-11-22T03:44:09.550Z,96132.50
2022-11-22T03:46:39.259Z,96134.16
2022-11-22T03:49:07.575Z,96136.75
2022-11-22T03:51:35.895Z,96132.53
2022-11-22T03:54:04.187Z,96137.66
2022-11-22T03:56:33.057Z,96129.16
2022-11-22T03:59:01.772Z,96136.00
2022-11-22T04:01:31.129Z,96139.41
2022-11-22T04:04:00.887Z,96133.47
2022-11-22T04:06:29.132Z,96128.34
2022-11-22T04:08:57.509Z,96133.44
2022-11-22T04:11:25.796Z,96139.41
2022-11-22T04:14:11.211Z,96139.34
2022-11-22T04:16:39.484Z,96145.25
2022-11-22T04:19:09.246Z,96135.09
2022-11-22T04:21:36.567Z,96135.91
2022-11-22T04:24:24.123Z,96146.09
2022-11-22T04:26:52.606Z,96136.72
2022-11-22T04:29:21.464Z,96127.41
2022-11-22T04:32:08.043Z,96141.88
2022-11-22T04:34:38.001Z,96126.56
2022-11-22T04:37:09.482Z,96124.03
2022-11-22T04:39:37.770Z,96122.38
2022-11-22T04:42:23.762Z,96121.59
2022-11-22T04:44:52.076Z,96118.16
2022-11-22T04:47:34.514Z,96113.91
2022-11-22T04:50:24.984Z,96104.50
2022-11-22T04:52:53.840Z,96099.38
2022-11-22T04:55:22.386Z,96099.47
2022-11-22T04:57:55.951Z,96097.75
2022-11-22T05:00:28.226Z,96091.78
2022-11-22T05:02:56.604Z,96092.59
2022-11-22T05:05:27.162Z,96091.78
2022-11-22T05:07:55.542Z,96091.78
2022-11-22T05:10:26.836Z,96083.28
2022-11-22T05:12:56.137Z,96076.47
2022-11-22T05:15:24.579Z,96073.09
2022-11-22T05:17:52.831Z,96079.00
2022-11-22T05:20:21.147Z,96071.34
2022-11-22T05:23:08.518Z,96073.88
2022-11-22T05:25:36.878Z,96067.94
2022-11-22T05:28:05.292Z,96063.69
2022-11-22T05:30:33.523Z,96065.41
2022-11-22T05:33:01.788Z,96056.88
2022-11-22T05:35:30.047Z,96055.19
2022-11-22T05:37:59.900Z,96058.59
2022-11-22T05:40:28.264Z,96047.50
2022-11-22T05:42:56.547Z,96052.59
2022-11-22T05:45:24.825Z,96053.47
2022-11-22T05:47:53.087Z,96068.81
2022-11-22T05:50:21.441Z,96073.88
2022-11-22T05:52:56.393Z,96067.91
2022-11-22T05:55:26.130Z,96072.16
2022-11-22T05:57:54.984Z,96076.44
2022-11-22T06:00:23.549Z,96084.09
2022-11-22T06:02:52.030Z,96084.94
2022-11-22T06:05:20.338Z,96091.69
2022-11-22T06:07:48.703Z,96086.59
2022-11-22T06:10:17.767Z,96091.72
2022-11-22T06:12:47.875Z,96093.41
2022-11-22T06:15:16.211Z,96094.25
2022-11-22T06:17:44.751Z,96107.81
2022-11-22T06:20:13.688Z,96109.53
2022-11-22T06:22:42.028Z,96111.28
2022-11-22T06:25:11.235Z,96113.03
2022-11-22T06:27:39.608Z,96102.78
2022-11-22T06:30:11.065Z,96106.22
2022-11-22T06:32:39.410Z,96107.91
2022-11-22T06:35:08.685Z,96111.38
2022-11-22T06:37:37.357Z,96106.25
2022-11-22T06:40:07.477Z,96104.56
2022-11-22T06:42:35.846Z,96097.75
2022-11-22T06:45:04.174Z,96092.66
2022-11-22T06:47:34.224Z,96089.31
2022-11-22T06:50:02.568Z,96077.38
2022-11-22T06:52:30.923Z,96071.44
2022-11-22T06:54:59.228Z,96056.13
2022-11-22T06:57:28.042Z,96060.34
2022-11-22T06:59:56.333Z,96056.94
2022-11-22T07:02:24.635Z,96053.53
2022-11-22T07:05:23.402Z,96056.94
2022-11-22T07:07:43.451Z,96067.19
2022-11-22T07:10:12.061Z,96081.66
2022-11-22T07:12:40.401Z,96079.94
2022-11-22T07:15:09.444Z,96080.78
2022-11-22T07:17:37.888Z,96074.00
2022-11-22T07:20:08.847Z,96077.41
2022-11-22T07:22:37.251Z,96091.84
2022-11-22T07:25:06.385Z,96087.56
2022-11-22T07:27:35.103Z,96098.66
2022-11-22T07:30:04.774Z,96101.19
2022-11-22T07:32:33.052Z,96105.44
2022-11-22T07:35:01.455Z,96096.09
2022-11-22T07:37:32.326Z,96105.47
2022-11-22T07:40:00.638Z,96106.34
2022-11-22T07:42:31.061Z,96102.94
2022-11-22T07:44:59.408Z,96093.59
2022-11-22T07:47:28.196Z,96097.88
2022-11-22T07:49:56.522Z,96100.38
2022-11-22T07:52:24.962Z,96102.97
2022-11-22T07:54:54.839Z,96099.56
2022-11-22T07:57:23.196Z,96095.28
2022-11-22T07:59:51.472Z,96087.63
2022-11-22T08:02:20.020Z,96096.16
2022-11-22T08:04:48.309Z,96100.41
2022-11-22T08:07:16.653Z,96096.16
2022-11-22T08:09:45.921Z,96097.00
2022-11-22T08:12:15.639Z,96102.97
2022-11-22T08:14:44.011Z,96099.56
2022-11-22T08:17:12.281Z,96109.78
2022-11-22T08:19:40.618Z,96108.94
2022-11-22T08:22:08.888Z,96113.19
2022-11-22T08:24:37.137Z,96114.03
2022-11-22T08:27:05.659Z,96114.91
2022-11-22T08:29:35.471Z,96118.31
2022-11-22T08:32:03.844Z,96115.78
2022-11-22T08:34:32.373Z,96116.63
2022-11-22T08:37:00.772Z,96114.06
2022-11-22T08:39:29.319Z,96102.09
2022-11-22T08:41:57.857Z,96105.50
2022-11-22T08:44:26.302Z,96102.09
2022-11-22T08:46:57.254Z,96093.59
2022-11-22T08:49:25.571Z,96087.56
2022-11-22T08:51:53.887Z,96082.44
2022-11-22T08:54:22.262Z,96084.09
2022-11-22T08:56:51.386Z,96082.38
2022-11-22T08:59:20.102Z,96082.38
2022-11-22T09:01:48.609Z,96084.91
2022-11-22T09:04:19.044Z,96073.75
2022-11-22T09:09:37.943Z,96080.72
2022-11-22T09:12:07.570Z,96086.69
2022-11-22T09:14:36.354Z,96079.03
2022-11-22T09:17:05.954Z,96072.16
2022-11-22T09:19:35.705Z,96067.81
2022-11-22T09:22:04.221Z,96056.59
2022-11-22T09:24:32.574Z,96067.75
2022-11-22T09:27:01.219Z,96071.91
2022-11-22T09:29:30.751Z,96058.22
2022-11-22T09:31:59.244Z,96059.09
2022-11-22T09:34:27.775Z,96055.66
2022-11-22T09:36:57.763Z,96047.94
2022-11-22T09:39:26.174Z,96041.88
2022-11-22T09:42:23.383Z,96037.56
2022-11-22T09:45:17.586Z,96030.38
2022-11-22T09:47:53.727Z,96029.38
2022-11-22T09:50:29.672Z,96028.53
2022-11-22T09:53:04.834Z,96021.03
2022-11-22T09:55:37.983Z,96012.38
2022-11-22T09:58:12.739Z,96010.75
2022-11-22T10:00:46.478Z,96012.34
2022-11-22T10:03:24.207Z,96004.81
2022-11-22T10:05:54.042Z,96003.72
2022-11-22T10:08:33.732Z,96001.09
2022-11-22T10:11:03.063Z,95984.59
2022-11-22T10:13:37.115Z,95988.03
2022-11-22T10:16:11.593Z,95975.34
2022-11-22T10:18:43.471Z,95969.41
2022-11-22T10:21:14.103Z,95953.19
2022-11-22T10:23:44.484Z,95940.22
2022-11-22T10:26:21.990Z,95928.53
2022-11-22T10:28:57.982Z,95929.38
2022-11-22T10:31:28.802Z,95930.47
2022-11-22T10:34:03.335Z,95918.50
2022-11-22T10:36:36.994Z,95916.63
2022-11-22T10:39:19.956Z,95919.19
2022-11-22T10:42:00.180Z,95910.06
2022-11-22T10:44:37.194Z,95916.81
2022-11-22T10:47:13.155Z,95904.84
2022-11-22T10:49:49.305Z,95893.06
2022-11-22T10:52:24.251Z,95879.47
2022-11-22T10:55:01.211Z,95865.38
2022-11-22T10:57:35.201Z,95858.25
2022-11-22T11:00:16.940Z,95848.28
2022-11-22T11:03:01.567Z,95846.66
2022-11-22T11:05:37.315Z,95849.56
2022-11-22T11:08:36.617Z,95849.38
2022-11-22T11:10:56.171Z,95846.66
2022-11-22T11:13:26.312Z,95842.94
2022-11-22T11:15:57.106Z,95841.28
2022-11-22T11:18:30.247Z,95837.63
2022-11-22T11:20:58.646Z,95827.19
2022-11-22T11:23:27.087Z,95818.66
2022-11-22T11:25:57.142Z,95830.66
2022-11-22T11:28:28.305Z,95831.03
2022-11-22T11:31:01.113Z,95830.31
2022-11-22T11:33:31.153Z,95833.72
2022-11-22T11:36:05.057Z,95828.50
2022-11-22T11:38:36.121Z,95826.41
2022-11-22T11:41:23.372Z,95829.63
2022-11-22T11:43:53.510Z,95832.47
2022-11-22T11:46:23.325Z,95830.13
2022-11-22T11:48:52.505Z,95832.47
2022-11-22T11:51:27.019Z,95834.38
2022-11-22T11:53:58.977Z,95831.78
2022-11-22T11:56:35.378Z,95837.00
2022-11-22T11:59:09.144Z,95833.34
2022-11-22T12:01:39.120Z,95833.47
2022-11-22T12:04:08.622Z,95834.44
2022-11-22T12:06:37.902Z,95833.59
2022-11-22T12:09:29.693Z,95828.63
2022-11-22T12:12:04.254Z,95834.06
2022-11-22T12:15:03.285Z,95839.88
2022-11-22T12:17:28.017Z,95847.63
2022-11-22T12:20:03.309Z,95845.19
2022-11-22T12:22:49.323Z,95850.28
2022-11-22T12:25:32.622Z,95851.34
2022-11-22T12:28:12.349Z,95859.94
2022-11-22T12:30:40.898Z,95864.31
2022-11-22T12:33:12.131Z,95873.91
2022-11-22T12:35:44.174Z,95881.78
2022-11-22T12:38:15.838Z,95886.06
2022-11-22T12:40:45.895Z,95893.94
2022-11-22T12:43:19.479Z,95907.84
2022-11-22T12:45:50.578Z,95920.78
2022-11-22T12:48:22.276Z,95926.81
2022-11-22T12:50:54.038Z,95936.22
2022-11-22T12:53:26.128Z,95943.16
2022-11-22T12:55:59.842Z,95941.63
2022-11-22T12:58:35.185Z,95950.97
2022-11-22T13:01:10.408Z,95963.03
2022-11-22T13:03:41.792Z,95962.03
2022-11-22T13:06:11.708Z,95961.28
2022-11-22T13:08:46.474Z,95953.66
2022-11-22T13:11:19.576Z,95950.47
2022-11-22T13:13:52.465Z,95955.53
2022-11-22T13:16:20.819Z,95955.66
2022-11-22T13:18:52.731Z,95953.22
2022-11-22T13:21:26.005Z,95953.31
2022-11-22T13:24:04.613Z,95964.41
2022-11-22T13:26:39.111Z,95962.75
2022-11-22T13:29:18.313Z,95963.59
2022-11-22T13:32:09.062Z,95960.16
2022-11-22T13:34:39.305Z,95963.66
2022-11-22T13:37:11.947Z,95948.09
2022-11-22T13:39:45.042Z,95936.31
2022-11-22T13:42:16.789Z,95946.66
2022-11-22T13:45:07.242Z,95941.69
2022-11-22T13:47:38.372Z,95940.81
2022-11-22T13:50:40.210Z,95929.56
2022-11-22T13:53:24.012Z,95921.22
2022-11-22T13:55:52.351Z,95917.78
2022-11-22T13:58:56.517Z,95907.59
2022-11-22T14:01:48.379Z,95911.91
2022-11-22T14:04:21.986Z,95908.56
2022-11-22T14:06:51.374Z,95908.53
2022-11-22T14:09:35.013Z,95906.81
2022-11-22T14:12:20.415Z,95904.25
2022-11-22T14:14:56.029Z,95907.66
2022-11-22T14:17:41.570Z,95897.31
2022-11-22T14:20:24.095Z,95893.78
2022-11-22T14:22:57.293Z,95894.69
2022-11-22T14:25:45.919Z,95886.88
2022-11-22T14:28:26.701Z,95887.94
2022-11-22T14:30:55.404Z,95891.44
2022-11-22T14:33:26.538Z,95895.69
2022-11-22T14:36:16.204Z,95896.59
2022-11-22T14:38:44.915Z,95903.41
2022-11-22T14:41:43.537Z,95897.47
2022-11-22T14:44:17.620Z,95892.31
2022-11-22T14:46:54.092Z,95898.25
2022-11-22T14:49:42.423Z,95886.22
2022-11-22T14:52:21.698Z,95888.91
2022-11-22T14:54:52.107Z,95897.38
2022-11-22T14:57:21.863Z,95892.31
2022-11-22T15:00:06.798Z,95891.38
2022-11-22T15:03:12.031Z,95892.16
2022-11-22T15:09:09.903Z,95897.47
2022-11-22T15:09:10.195Z,95903.41
2022-11-22T15:12:02.479Z,95921.38
2022-11-22T15:58:00.970Z,95961.44
2022-11-22T16:00:30.555Z,95969.13
2022-11-22T16:03:01.852Z,95966.59
2022-11-22T16:06:06.251Z,95957.19
2022-11-22T16:08:22.306Z,95959.72
2022-11-22T16:10:52.050Z,95963.81
2022-11-22T16:13:30.573Z,95964.75
2022-11-22T16:16:07.612Z,95967.38
2022-11-22T16:18:41.181Z,95959.69
2022-11-22T16:21:21.232Z,95958.88
2022-11-22T16:24:12.727Z,95968.28
2022-11-22T16:26:41.860Z,95972.44
2022-11-22T16:29:32.652Z,95971.53
2022-11-22T16:32:06.760Z,95968.06
2022-11-22T16:34:36.662Z,95972.44
2022-11-22T16:37:27.010Z,95967.34
2022-11-22T16:39:56.243Z,95971.66
2022-11-22T16:42:26.085Z,95975.97
2022-11-22T16:45:03.584Z,95985.31
2022-11-22T16:47:33.503Z,95987.88
2022-11-22T16:50:02.696Z,95986.09
2022-11-22T16:52:32.687Z,95981.03
2022-11-22T16:55:02.458Z,95987.81
2022-11-22T16:57:31.618Z,95988.69
2022-11-22T17:00:02.295Z,95991.25
2022-11-22T17:02:32.096Z,95990.41
2022-11-22T17:05:01.649Z,95987.88
2022-11-22T17:07:30.943Z,95989.59
2022-11-22T17:10:00.674Z,95991.31
2022-11-22T17:12:33.636Z,95996.41
2022-11-22T17:15:07.002Z,96007.44
2022-11-22T17:17:38.418Z,95999.78
2022-11-22T17:20:10.494Z,95999.00
2022-11-22T17:22:42.531Z,95993.91
2022-11-22T17:25:14.614Z,95985.38
2022-11-22T17:27:44.744Z,95985.34
2022-11-22T17:30:19.639Z,95987.06
2022-11-22T17:32:49.975Z,95982.84
2022-11-22T17:35:20.543Z,95979.44
2022-11-22T17:37:50.403Z,95968.34
2022-11-22T17:40:21.677Z,95973.47
2022-11-22T17:42:51.343Z,95965.81
2022-11-22T17:45:26.115Z,95970.06
2022-11-22T17:47:59.885Z,95964.09
2022-11-22T17:50:34.234Z,95960.69
2022-11-22T17:53:04.989Z,95958.16
2022-11-22T17:56:08.527Z,95958.97
2022-11-22T17:58:30.117Z,95944.47
2022-11-22T18:01:10.451Z,95948.66
2022-11-22T18:03:42.530Z,95944.41
2022-11-22T18:06:13.497Z,95935.94
2022-11-22T18:08:47.259Z,95942.78
2022-11-22T18:11:18.613Z,95935.06
2022-11-22T18:13:48.731Z,95942.78
2022-11-22T18:16:29.175Z,95933.41
2022-11-22T18:18:59.378Z,95930.81
2022-11-22T18:21:30.824Z,95931.66
2022-11-22T18:24:03.835Z,95923.19
2022-11-22T18:26:42.040Z,95918.94
2022-11-22T18:32:08.073Z,95914.59
2022-11-22T18:34:40.100Z,95909.56
2022-11-22T18:37:12.249Z,95917.19
2022-11-22T18:39:42.868Z,95909.41
2022-11-22T18:42:17.214Z,95916.25
2022-11-22T18:44:47.531Z,95924.00
2022-11-22T18:47:20.056Z,95917.09
2022-11-22T18:49:51.377Z,95912.06
2022-11-22T18:52:23.187Z,95915.44
2022-11-22T18:54:55.171Z,95913.69
2022-11-22T18:57:26.733Z,95911.16
2022-11-22T18:59:57.415Z,95901.75
2022-11-22T19:02:32.179Z,95895.91
2022-11-22T19:05:02.904Z,95906.13
2022-11-22T19:07:33.375Z,95900.13
2022-11-22T19:10:04.800Z,95901.72
2022-11-22T19:12:35.613Z,95909.53
2022-11-22T19:15:08.856Z,95909.59
2022-11-22T19:17:42.925Z,95912.00
2022-11-22T19:20:39.171Z,95916.97
2022-11-22T19:23:06.434Z,95908.47
2022-11-22T19:25:37.910Z,95907.72
2022-11-22T19:28:08.076Z,95914.53
2022-11-22T19:30:42.933Z,95914.66
2022-11-22T19:33:18.024Z,95915.53
2022-11-22T19:35:58.082Z,95930.00
2022-11-22T19:38:29.831Z,95929.03
2022-11-22T19:41:02.452Z,95923.09
2022-11-22T19:43:33.959Z,95925.63
2022-11-22T19:46:04.599Z,95925.53
2022-11-22T19:48:43.791Z,95925.69
2022-11-22T19:51:21.822Z,95920.59
2022-11-22T19:53:57.100Z,95924.91
2022-11-22T19:56:30.697Z,95920.63
2022-11-22T19:59:02.821Z,95918.91
2022-11-22T20:01:34.839Z,95922.28
2022-11-22T20:04:08.053Z,95922.94
2022-11-22T20:06:40.775Z,95915.28
2022-11-22T20:09:14.043Z,95920.53
2022-11-22T20:11:47.354Z,95920.53
2022-11-22T20:14:18.107Z,95917.00
2022-11-22T20:16:49.937Z,95918.69
2022-11-22T20:19:21.713Z,95919.56
2022-11-22T20:21:52.509Z,95920.47
2022-11-22T20:24:22.976Z,95924.88
2022-11-22T20:26:53.973Z,95927.41
2022-11-22T20:29:25.742Z,95912.88
2022-11-22T20:32:00.312Z,95923.19
2022-11-22T20:34:34.258Z,95922.34
2022-11-22T20:37:07.514Z,95922.28
2022-11-22T20:39:39.087Z,95925.69
2022-11-22T20:42:33.544Z,95927.44
2022-11-22T20:45:05.805Z,95936.00
2022-11-22T20:47:36.536Z,95940.19
2022-11-22T20:50:11.453Z,95938.56
2022-11-22T20:52:42.797Z,95946.19
2022-11-22T20:55:14.185Z,95943.66
2022-11-22T20:57:44.411Z,95948.69
2022-11-22T21:00:16.562Z,95953.81
2022-11-22T21:02:48.841Z,95952.13
2022-11-22T21:05:20.283Z,95964.13
2022-11-22T21:08:02.378Z,95958.19
2022-11-22T21:10:33.360Z,95961.50
2022-11-22T21:13:02.620Z,95968.22
2022-11-22T21:15:32.334Z,95970.81
2022-11-22T21:18:24.117Z,95970.91
2022-11-22T21:20:55.552Z,95976.88
2022-11-22T21:23:27.169Z,95970.91
2022-11-22T21:25:56.037Z,95972.63
2022-11-22T21:28:25.235Z,95981.13
2022-11-22T21:30:55.347Z,95976.84
2022-11-22T21:33:27.803Z,95982.84
2022-11-22T21:36:07.296Z,95976.00
2022-11-22T21:38:40.477Z,95986.22
2022-11-22T21:44:02.530Z,95981.97
2022-11-22T21:46:35.524Z,95993.06
2022-11-22T21:49:04.159Z,95985.41
2022-11-22T21:51:34.115Z,95993.06
2022-11-22T21:54:03.618Z,95999.03
2022-11-22T21:56:33.033Z,95995.59
2022-11-22T21:59:05.008Z,95999.03
2022-11-22T22:01:37.916Z,96005.00
2022-11-22T22:04:06.869Z,96008.41
2022-11-22T22:06:39.493Z,96005.84
2022-11-22T22:09:10.823Z,96005.00
2022-11-22T22:11:45.658Z,95998.06
2022-11-22T22:14:14.211Z,96004.16
2022-11-22T22:16:43.416Z,96013.47
2022-11-22T22:19:11.911Z,96010.94
2022-11-22T22:21:41.820Z,96008.41
2022-11-22T22:24:11.526Z,96001.59
2022-11-22T22:26:42.627Z,96007.56
2022-11-22T22:29:12.259Z,96010.97
2022-11-22T22:31:40.598Z,96005.88
2022-11-22T22:34:09.999Z,96001.59
2022-11-22T22:36:38.373Z,95998.19
2022-11-22T22:39:12.173Z,96010.09
2022-11-22T22:41:40.687Z,96008.34
2022-11-22T22:44:09.193Z,96008.38
2022-11-22T22:46:37.860Z,96001.56
2022-11-22T22:49:07.777Z,95996.44
2022-11-22T22:51:36.003Z,95995.59
2022-11-22T22:54:04.478Z,96000.72
2022-11-22T22:56:34.154Z,95995.66
2022-11-22T22:59:02.418Z,95993.91
2022-11-22T23:01:32.205Z,95993.81
2022-11-22T23:04:01.870Z,95999.88
2022-11-22T23:06:31.924Z,95996.47
2022-11-22T23:09:00.856Z,96004.16
2022-11-22T23:11:44.699Z,96003.28
2022-11-22T23:14:17.130Z,95997.28
2022-11-22T23:16:45.429Z,96006.66
2022-11-22T23:19:13.942Z,96001.56
2022-11-22T23:21:42.243Z,96000.72
2022-11-22T23:24:10.743Z,95996.44
2022-11-22T23:26:39.431Z,95994.78
2022-11-22T23:29:07.728Z,96004.16
2022-11-22T23:31:37.718Z,95999.03
2022-11-22T23:34:05.990Z,95999.88
2022-11-22T23:36:40.242Z,95999.06
2022-11-22T23:39:09.274Z,96006.69
2022-11-22T23:41:37.574Z,95995.66
2022-11-22T23:44:06.115Z,95998.19
2022-11-22T23:46:34.376Z,95997.31
2022-11-22T23:49:06.135Z,95993.91
2022-11-22T23:51:35.039Z,95986.22
2022-11-22T23:54:05.214Z,95992.19
2022-11-22T23:56:34.933Z,95989.63
2022-11-22T23:59:05.060Z,95987.09
